Time;durP1;ratioP1;P1;durP2;ratioP2;P2;SDS_P1;SDS_P2;PMS_P1;PMS_P2;Temp;Humidity;BMP_temperature;BMP_pressure;BME280_temperature;BME280_humidity;BME280_pressure;Samples;Min_cycle;Max_cycle;Signal;HPM_P1;HPM_P2
2022/12/19 00:01:15;;;;;;;39.97;20.97;;;0.80;99.90;;;;;;5009490;28;20040;-81
2022/12/19 00:04:02;;;;;;;41.53;21.63;;;0.70;99.90;;;;;;4985344;28;20535;-81
2022/12/19 00:06:46;;;;;;;40.23;21.07;;;;;;;;;;5009234;28;20041;-81
2022/12/19 00:09:31;;;;;;;38.07;17.43;;;;;;;;;;5009951;28;20099;-80
2022/12/19 00:12:15;;;;;;;42.23;21.30;;;;;;;;;;5010100;28;20130;-81
2022/12/19 00:15:00;;;;;;;47.57;22.40;;;;;;;;;;4995496;28;20198;-81
2022/12/19 00:17:45;;;;;;;40.80;20.70;;;;;;;;;;5009138;28;20052;-80
2022/12/19 00:20:29;;;;;;;43.67;23.10;;;;;;;;;;5008520;28;20052;-81
2022/12/19 00:23:14;;;;;;;42.50;21.23;;;;;;;;;;5010160;28;20067;-81
2022/12/19 00:26:12;;;;;;;39.63;20.63;;;0.90;99.90;;;;;;5009073;28;20075;-80
2022/12/19 00:28:59;;;;;;;46.03;21.43;;;0.90;99.90;;;;;;5009806;28;20159;-81
2022/12/19 00:31:44;;;;;;;43.87;22.10;;;;;;;;;;5009609;28;20172;-81
2022/12/19 00:34:28;;;;;;;44.47;22.60;;;;;;;;;;5009512;28;20037;-81
2022/12/19 00:37:13;;;;;;;43.20;21.00;;;;;;;;;;4999379;28;20040;-82
2022/12/19 00:39:57;;;;;;;37.83;21.40;;;;;;;;;;5009112;28;20076;-81
2022/12/19 00:42:42;;;;;;;42.90;19.97;;;;;;;;;;5008407;28;20609;-81
2022/12/19 00:45:26;;;;;;;41.40;20.17;;;;;;;;;;5009442;28;20041;-81
2022/12/19 00:48:11;;;;;;;39.37;20.67;;;;;;;;;;5009572;28;20087;-81
2022/12/19 00:51:00;;;;;;;40.27;20.70;;;1.30;99.90;;;;;;5008768;28;20084;-81
2022/12/19 00:53:46;;;;;;;40.80;21.50;;;1.20;99.90;;;;;;4983611;28;20060;-81
2022/12/19 00:56:32;;;;;;;39.23;20.70;;;1.20;99.90;;;;;;5009169;28;20126;-81
2022/12/19 00:59:16;;;;;;;40.00;21.53;;;;;;;;;;4994842;28;20121;-82
2022/12/19 01:02:00;;;;;;;38.07;19.37;;;;;;;;;;5008688;28;20098;-81
2022/12/19 01:04:45;;;;;;;40.30;21.43;;;;;;;;;;5012397;28;20471;-81
2022/12/19 01:07:30;;;;;;;37.93;19.97;;;;;;;;;;4997945;28;20410;-81
2022/12/19 01:10:14;;;;;;;38.50;20.40;;;;;;;;;;5011876;28;20554;-81
2022/12/19 01:12:59;;;;;;;41.90;21.10;;;;;;;;;;5012046;28;20045;-81
2022/12/19 01:15:44;;;;;;;35.80;19.57;;;;;;;;;;5011351;28;20033;-81
2022/12/19 01:18:28;;;;;;;38.13;18.40;;;;;;;;;;5011234;28;20090;-81
2022/12/19 01:21:13;;;;;;;38.57;20.73;;;1.50;99.90;;;;;;5012755;28;20045;-81
2022/12/19 01:23:57;;;;;;;35.53;17.57;;;;;;;;;;5012710;28;20091;-81
2022/12/19 01:26:42;;;;;;;39.37;20.63;;;;;;;;;;5011350;28;20124;-81
2022/12/19 01:29:26;;;;;;;39.83;20.63;;;;;;;;;;4985711;28;20045;-81
2022/12/19 01:32:11;;;;;;;37.87;19.50;;;;;;;;;;5011471;28;20049;-81
2022/12/19 01:34:55;;;;;;;38.07;20.30;;;;;;;;;;5012666;28;20052;-81
2022/12/19 01:37:40;;;;;;;36.63;18.30;;;;;;;;;;4997142;28;20510;-81
2022/12/19 01:40:24;;;;;;;40.63;19.80;;;;;;;;;;5006701;28;20045;-81
2022/12/19 01:43:13;;;;;;;37.57;20.17;;;1.60;99.90;;;;;;5009171;28;20052;-81
2022/12/19 01:46:05;;;;;;;41.67;21.83;;;1.70;99.90;;;;;;5008915;28;20045;-81
2022/12/19 01:48:49;;;;;;;39.43;19.70;;;;;;;;;;4998756;28;20444;-81
2022/12/19 01:51:36;;;;;;;41.40;20.67;;;;;;;;;;4983816;28;20042;-81
2022/12/19 01:54:25;;;;;;;36.57;19.30;;;1.70;99.90;;;;;;5006224;28;20097;-81
2022/12/19 01:57:12;;;;;;;34.50;19.27;;;1.80;99.90;;;;;;5011425;28;20440;-81
2022/12/19 01:59:58;;;;;;;40.77;19.73;;;;;;;;;;4978363;28;20200;-81
2022/12/19 02:02:51;;;;;;;36.23;18.73;;;1.80;99.90;;;;;;5006404;28;20064;-82
2022/12/19 02:05:36;;;;;;;39.40;19.00;;;;;;;;;;5010943;28;20095;-82
2022/12/19 02:08:21;;;;;;;38.30;18.70;;;;;;;;;;5011070;28;20188;-81
2022/12/19 02:11:05;;;;;;;37.63;19.37;;;;;;;;;;5011104;28;20092;-82
2022/12/19 02:13:50;;;;;;;39.50;21.17;;;;;;;;;;5010192;28;20528;-81
2022/12/19 02:17:11;;;;;;;38.23;19.17;;;2.10;99.90;;;;;;5008825;28;20087;-81
2022/12/19 02:20:12;;;;;;;36.27;18.57;;;;;;;;;;5008169;28;20055;-81
2022/12/19 02:22:57;;;;;;;40.93;21.03;;;;;;;;;;5011577;28;20053;-81
2022/12/19 02:25:57;;;;;;;44.33;20.83;;;1.80;99.90;;;;;;5011643;28;20501;-81
2022/12/19 02:29:02;;;;;;;39.20;21.50;;;1.80;99.90;;;;;;5010414;28;20095;-81
2022/12/19 02:31:57;;;;;;;46.72;23.70;;;1.80;99.90;;;;;;5010343;28;20045;-81
2022/12/19 02:34:54;;;;;;;44.57;21.97;;;1.80;99.90;;;;;;5011400;28;20602;-81
2022/12/19 02:37:49;;;;;;;47.73;24.57;;;;;;;;;;4988961;28;20485;-82
2022/12/19 02:40:41;;;;;;;54.33;24.73;;;1.80;99.90;;;;;;5011232;28;20517;-81
2022/12/19 02:43:29;;;;;;;50.60;25.60;;;1.70;99.90;;;;;;5011770;28;20452;-81
2022/12/19 02:46:15;;;;;;;51.70;24.00;;;1.70;99.90;;;;;;5011619;28;20087;-81
2022/12/19 02:49:00;;;;;;;54.27;22.43;;;;;;;;;;5009924;28;20083;-81
2022/12/19 02:51:44;;;;;;;54.47;24.70;;;;;;;;;;5011213;28;20049;-81
2022/12/19 02:54:29;;;;;;;50.60;25.07;;;;;;;;;;5011642;28;20098;-81
2022/12/19 02:57:29;;;;;;;56.40;26.43;;;;;;;;;;5011390;28;20390;-81
2022/12/19 03:00:19;;;;;;;57.00;25.80;;;1.70;99.90;;;;;;5011527;28;20040;-81
2022/12/19 03:03:31;;;;;;;57.33;25.87;;;1.80;99.90;;;;;;4985063;28;20071;-81
2022/12/19 03:06:57;;;;;;;60.07;25.83;;;2.00;99.90;;;;;;5010061;28;20037;-81
2022/12/19 03:09:57;;;;;;;62.60;27.43;;;1.80;99.90;;;;;;5019460;28;20041;-81
2022/12/19 03:12:50;;;;;;;60.97;26.77;;;1.80;99.90;;;;;;5010091;28;20036;-80
2022/12/19 03:15:36;;;;;;;64.43;28.40;;;1.80;99.90;;;;;;5011167;28;20450;-81
2022/12/19 03:18:21;;;;;;;67.87;29.17;;;;;;;;;;5011015;28;20091;-81
2022/12/19 03:21:20;;;;;;;61.37;28.47;;;;;;;;;;5009347;28;20048;-81
2022/12/19 03:24:05;;;;;;;64.77;30.03;;;1.90;99.90;;;;;;5009594;28;20146;-81
2022/12/19 03:27:27;;;;;;;71.73;29.00;;;2.10;99.90;;;;;;4995488;28;20038;-81
2022/12/19 03:30:13;;;;;;;64.67;27.77;;;2.00;99.90;;;;;;5046373;28;20551;-80
2022/12/19 03:32:57;;;;;;;60.60;28.67;;;;;;;;;;5009371;28;20065;-81
2022/12/19 03:35:43;;;;;;;64.93;28.53;;;2.00;99.90;;;;;;5009969;28;20166;-80
2022/12/19 03:38:28;;;;;;;71.00;30.27;;;;;;;;;;5009635;28;20502;-81
2022/12/19 03:41:15;;;;;;;67.57;29.90;;;2.10;99.90;;;;;;5009450;28;20069;-81
2022/12/19 03:44:00;;;;;;;68.67;29.23;;;;;;;;;;4986436;28;20041;-81
2022/12/19 03:46:53;;;;;;;68.13;30.37;;;2.10;99.90;;;;;;5009538;28;20550;-81
2022/12/19 03:49:37;;;;;;;75.17;31.83;;;;;;;;;;5002606;28;20061;-81
2022/12/19 03:52:52;;;;;;;66.33;30.23;;;2.30;99.90;;;;;;5007350;28;20121;-81
2022/12/19 03:56:06;;;;;;;54.57;23.90;;;2.30;99.90;;;;;;5009214;28;20088;-81
2022/12/19 03:59:14;;;;;;;69.03;30.60;;;2.30;99.90;;;;;;4989581;28;20765;-81
2022/12/19 04:02:01;;;;;;;64.27;30.20;;;2.30;99.90;;;;;;4990438;28;20075;-81
2022/12/19 04:04:46;;;;;;;72.93;29.90;;;;;;;;;;4977699;28;20060;-81
2022/12/19 04:07:32;;;;;;;69.47;31.00;;;2.40;99.90;;;;;;5017612;28;20046;-81
2022/12/19 04:10:18;;;;;;;73.80;32.60;;;;;;;;;;4989804;28;20445;-81
2022/12/19 04:13:10;;;;;;;72.23;32.13;;;2.40;99.90;;;;;;4990179;28;20041;-82
2022/12/19 04:16:10;;;;;;;66.83;31.20;;;2.50;99.90;;;;;;4990163;28;20041;-82
2022/12/19 04:19:33;;;;;;;70.17;33.43;;;;;;;;;;4990278;28;20391;-81
2022/12/19 04:22:28;;;;;;;68.60;32.77;;;2.50;99.90;;;;;;5050287;28;20052;-81
2022/12/19 04:25:17;;;;;;;64.33;32.40;;;2.50;99.90;;;;;;5024037;28;20051;-81
2022/12/19 04:28:10;;;;;;;74.07;32.67;;;2.60;99.90;;;;;;4991322;28;20058;-81
2022/12/19 04:30:55;;;;;;;65.05;31.48;;;;;;;;;;4989097;28;20041;-82
2022/12/19 04:33:40;;;;;;;69.50;33.00;;;;;;;;;;4990484;28;20555;-81
2022/12/19 04:36:25;;;;;;;75.07;33.30;;;;;;;;;;4989935;28;20068;-82
2022/12/19 04:39:10;;;;;;;79.87;35.67;;;;;;;;;;4988940;28;20474;-81
2022/12/19 04:41:54;;;;;;;73.70;34.67;;;;;;;;;;4988804;28;20093;-81
2022/12/19 04:44:39;;;;;;;77.17;35.33;;;;;;;;;;4990324;28;20089;-81
2022/12/19 04:47:23;;;;;;;72.67;33.87;;;;;;;;;;5017030;28;20046;-81
2022/12/19 04:50:08;;;;;;;72.60;35.27;;;2.90;99.90;;;;;;4988790;28;20050;-82
2022/12/19 04:52:56;;;;;;;82.30;36.47;;;;;;;;;;4984198;28;20060;-81
2022/12/19 04:55:41;;;;;;;75.90;33.17;;;;;;;;;;5009669;28;20045;-82
2022/12/19 04:58:26;;;;;;;75.00;34.47;;;;;;;;;;5009709;28;20095;-81
2022/12/19 05:01:12;;;;;;;75.07;33.90;;;;;;;;;;5008072;28;20451;-82
2022/12/19 05:03:57;;;;;;;76.27;33.83;;;;;;;;;;5009759;28;20045;-81
2022/12/19 05:06:41;;;;;;;73.87;32.07;;;;;;;;;;5009747;28;20122;-81
2022/12/19 05:09:26;;;;;;;70.27;33.50;;;;;;;;;;5009396;28;20057;-81
2022/12/19 05:12:11;;;;;;;74.03;32.73;;;;;;;;;;5009048;28;20049;-81
2022/12/19 05:14:55;;;;;;;75.57;33.87;;;;;;;;;;5009575;28;20394;-81
2022/12/19 05:17:39;;;;;;;83.47;34.97;;;;;;;;;;5008522;28;20045;-81
2022/12/19 05:20:24;;;;;;;74.67;35.90;;;;;;;;;;5008887;28;20041;-81
2022/12/19 05:23:08;;;;;;;77.87;34.23;;;;;;;;;;5008848;28;20040;-81
2022/12/19 05:25:53;;;;;;;85.60;35.70;;;;;;;;;;5008483;28;20087;-81
2022/12/19 05:28:37;;;;;;;78.70;33.53;;;;;;;;;;5009339;28;20489;-81
2022/12/19 05:31:22;;;;;;;87.50;34.57;;;;;;;;;;5007716;28;20098;-81
2022/12/19 05:34:07;;;;;;;84.67;35.17;;;;;;;;;;5007955;28;20040;-82
2022/12/19 05:36:51;;;;;;;83.47;35.10;;;;;;;;;;5008161;28;20048;-81
2022/12/19 05:39:36;;;;;;;79.40;34.87;;;;;;;;;;5019320;28;20505;-81
2022/12/19 05:42:20;;;;;;;72.23;32.87;;;;;;;;;;5007555;28;20421;-81
2022/12/19 05:45:05;;;;;;;64.13;30.67;;;;;;;;;;5007781;28;20053;-82
2022/12/19 05:47:49;;;;;;;72.07;32.30;;;;;;;;;;4994519;28;20085;-80
2022/12/19 05:50:34;;;;;;;79.10;31.47;;;;;;;;;;4998406;28;20071;-81
2022/12/19 05:53:18;;;;;;;66.40;31.23;;;;;;;;;;5012032;28;20083;-81
2022/12/19 05:56:05;;;;;;;64.23;31.67;;;3.30;99.90;;;;;;5012317;28;20045;-81
2022/12/19 05:58:50;;;;;;;67.43;31.70;;;;;;;;;;5012493;28;20037;-81
2022/12/19 06:01:34;;;;;;;73.87;30.73;;;;;;;;;;4999960;28;20108;-81
2022/12/19 06:04:19;;;;;;;68.30;33.80;;;;;;;;;;4992039;28;20042;-81
2022/12/19 06:07:04;;;;;;;70.50;29.67;;;;;;;;;;4990267;28;20514;-81
2022/12/19 06:09:48;;;;;;;70.60;30.77;;;;;;;;;;4988128;28;20143;-81
2022/12/19 06:12:33;;;;;;;67.77;27.50;;;;;;;;;;4991820;28;20053;-81
2022/12/19 06:15:17;;;;;;;63.90;27.67;;;;;;;;;;4990684;28;20112;-81
2022/12/19 06:18:02;;;;;;;59.30;28.37;;;;;;;;;;4992000;28;20041;-81
2022/12/19 06:20:57;;;;;;;58.67;27.77;;;3.60;99.90;;;;;;4984895;28;20077;-81
2022/12/19 06:23:42;;;;;;;62.40;27.93;;;;;;;;;;4990141;28;20448;-81
2022/12/19 06:26:27;;;;;;;59.87;25.77;;;;;;;;;;4995175;28;20048;-82
2022/12/19 06:29:11;;;;;;;59.07;25.93;;;;;;;;;;5009439;28;20398;-81
2022/12/19 06:31:56;;;;;;;61.43;26.47;;;;;;;;;;4998952;28;20041;-81
2022/12/19 06:34:40;;;;;;;54.13;23.37;;;;;;;;;;5007792;28;20036;-81
2022/12/19 06:37:25;;;;;;;55.70;23.67;;;;;;;;;;5021538;28;20534;-82
2022/12/19 06:42:21;;;;;;;54.97;25.40;;;;;;;;;;5007278;28;20433;-81
2022/12/19 06:43:14;;;;;;;50.07;23.60;;;;;;;;;;5009063;28;20044;-81
2022/12/19 06:45:59;;;;;;;47.83;23.17;;;;;;;;;;5009084;28;20037;-81
2022/12/19 06:48:44;;;;;;;44.10;21.80;;;;;;;;;;4996390;28;20110;-81
2022/12/19 06:51:28;;;;;;;51.73;21.87;;;;;;;;;;5006791;28;20045;-81
2022/12/19 06:54:14;;;;;;;45.67;22.43;;;;;;;;;;5007681;28;20087;-82
2022/12/19 06:56:59;;;;;;;42.53;22.13;;;;;;;;;;5009039;28;20454;-81
2022/12/19 06:59:43;;;;;;;45.73;20.80;;;;;;;;;;4998022;28;20033;-81
2022/12/19 07:02:30;;;;;;;44.70;20.27;;;4.10;99.90;;;;;;4999588;28;20092;-80
2022/12/19 07:05:15;;;;;;;44.57;20.53;;;;;;;;;;4998683;28;20063;-83
2022/12/19 07:08:02;;;;;;;47.37;20.77;;;;;;;;;;5009693;28;20127;-82
2022/12/19 07:10:47;;;;;;;46.43;20.50;;;;;;;;;;5008160;28;20123;-82
2022/12/19 07:13:32;;;;;;;46.47;22.27;;;;;;;;;;5007245;28;20045;-81
2022/12/19 07:16:17;;;;;;;44.63;20.30;;;;;;;;;;5007066;28;20418;-82
2022/12/19 07:19:01;;;;;;;41.33;19.97;;;;;;;;;;5006711;28;20457;-80
2022/12/19 07:21:46;;;;;;;42.47;21.53;;;;;;;;;;4998815;28;20063;-81
2022/12/19 07:24:31;;;;;;;39.73;19.97;;;;;;;;;;5005849;28;20465;-82
2022/12/19 07:27:16;;;;;;;42.27;18.27;;;;;;;;;;5008411;28;20040;-83
2022/12/19 07:30:01;;;;;;;34.40;18.13;;;;;;;;;;5000676;28;20040;-80
2022/12/19 07:32:46;;;;;;;42.27;19.97;;;;;;;;;;5007502;28;20101;-80
2022/12/19 07:35:31;;;;;;;38.00;20.03;;;;;;;;;;5005249;28;20041;-80
2022/12/19 07:38:15;;;;;;;41.10;20.30;;;;;;;;;;5004519;28;20041;-80
2022/12/19 07:41:00;;;;;;;36.80;19.00;;;4.40;99.90;;;;;;5006925;28;20110;-80
2022/12/19 07:43:46;;;;;;;35.40;18.97;;;;;;;;;;5008052;28;20140;-81
2022/12/19 07:46:30;;;;;;;43.73;19.33;;;;;;;;;;5005925;28;20057;-81
2022/12/19 07:49:14;;;;;;;37.93;17.80;;;;;;;;;;5006044;28;20040;-81
2022/12/19 07:51:59;;;;;;;41.87;18.07;;;;;;;;;;5008307;28;20041;-81
2022/12/19 07:54:43;;;;;;;41.63;19.37;;;;;;;;;;4989780;28;20497;-81
2022/12/19 07:57:28;;;;;;;42.30;21.30;;;;;;;;;;5007252;28;20045;-81
2022/12/19 08:00:13;;;;;;;38.60;18.73;;;;;;;;;;5004809;28;20150;-81
2022/12/19 08:03:00;;;;;;;43.83;19.63;;;;;;;;;;5004401;28;20056;-80
2022/12/19 08:05:45;;;;;;;38.50;18.97;;;;;;;;;;4994877;28;20050;-80
2022/12/19 08:08:29;;;;;;;43.50;19.37;;;;;;;;;;4989874;28;20045;-82
2022/12/19 08:11:16;;;;;;;38.43;19.07;;;4.70;99.90;;;;;;4988790;28;20049;-81
2022/12/19 08:14:01;;;;;;;40.23;19.23;;;;;;;;;;4991697;28;20057;-80
2022/12/19 08:16:46;;;;;;;37.10;18.03;;;;;;;;;;4977342;28;20497;-80
2022/12/19 08:19:30;;;;;;;38.80;19.80;;;;;;;;;;4989500;28;20084;-81
2022/12/19 08:22:15;;;;;;;39.23;18.50;;;;;;;;;;4990190;28;20049;-82
2022/12/19 08:25:00;;;;;;;38.70;18.47;;;;;;;;;;4997245;28;20104;-83
2022/12/19 08:27:44;;;;;;;37.70;16.93;;;;;;;;;;4982757;28;20145;-81
2022/12/19 08:30:28;;;;;;;37.83;16.83;;;;;;;;;;4989532;28;20034;-82
2022/12/19 08:33:13;;;;;;;36.60;17.20;;;;;;;;;;4989004;28;20115;-81
2022/12/19 08:35:57;;;;;;;35.30;17.27;;;;;;;;;;4981845;28;20494;-81
2022/12/19 08:38:42;;;;;;;34.83;17.17;;;;;;;;;;4989355;28;20092;-82
2022/12/19 08:41:27;;;;;;;40.80;18.20;;;;;;;;;;4989750;28;20057;-82
2022/12/19 08:44:12;;;;;;;32.53;16.27;;;;;;;;;;4991783;28;20061;-81
2022/12/19 08:46:56;;;;;;;36.50;18.80;;;;;;;;;;4988889;28;20038;-81
2022/12/19 08:49:41;;;;;;;30.27;16.63;;;;;;;;;;4981238;28;20041;-81
2022/12/19 08:52:25;;;;;;;36.70;18.33;;;;;;;;;;5006416;28;20506;-81
2022/12/19 08:55:10;;;;;;;31.67;15.03;;;;;;;;;;5009366;28;20045;-81
2022/12/19 08:57:55;;;;;;;35.63;17.90;;;;;;;;;;4994736;28;20091;-80
2022/12/19 09:00:39;;;;;;;33.93;16.70;;;;;;;;;;5045953;28;20085;-81
2022/12/19 09:03:24;;;;;;;31.37;16.73;;;;;;;;;;5008437;28;20129;-81
2022/12/19 09:06:10;;;;;;;34.93;18.40;;;;;;;;;;4994460;28;20056;-81
2022/12/19 09:08:55;;;;;;;34.87;17.10;;;;;;;;;;5008848;28;20037;-82
2022/12/19 09:11:39;;;;;;;36.17;17.67;;;;;;;;;;4984141;28;20049;-81
2022/12/19 09:14:23;;;;;;;29.45;17.25;;;;;;;;;;4983878;28;20163;-81
2022/12/19 09:17:08;;;;;;;36.67;18.43;;;;;;;;;;4994632;28;20045;-81
2022/12/19 09:19:53;;;;;;;29.67;16.23;;;;;;;;;;4997471;28;20321;-80
2022/12/19 09:22:37;;;;;;;32.33;17.50;;;;;;;;;;5008538;28;20079;-81
2022/12/19 09:25:22;;;;;;;35.47;17.63;;;;;;;;;;5012570;28;20455;-81
2022/12/19 09:28:06;;;;;;;31.98;16.77;;;;;;;;;;5006260;28;20402;-81
2022/12/19 09:30:58;;;;;;;32.58;16.52;;;;;;;;;;4995670;28;20421;-80
2022/12/19 09:33:43;;;;;;;36.23;17.03;;;;;;;;;;4997073;28;20052;-81
2022/12/19 09:36:28;;;;;;;34.63;18.90;;;;;;;;;;5011897;28;20041;-80
2022/12/19 09:39:13;;;;;;;35.88;19.75;;;;;;;;;;5012159;28;20041;-80
2022/12/19 09:41:57;;;;;;;35.15;19.63;;;;;;;;;;5009891;28;20056;-80
2022/12/19 09:44:48;;;;;;;38.78;20.98;;;;;;;;;;5044805;28;20047;-81
2022/12/19 09:47:33;;;;;;;37.92;19.85;;;;;;;;;;5009227;28;20049;-81
2022/12/19 09:50:38;;;;;;;37.05;20.42;;;;;;;;;;5009004;28;20040;-81
2022/12/19 09:53:31;;;;;;;37.28;18.80;;;;;;;;;;4997299;28;20090;-83
2022/12/19 09:56:17;;;;;;;44.85;19.10;;;;;;;;;;5009374;28;20500;-81
2022/12/19 09:59:11;;;;;;;38.42;19.95;;;;;;;;;;4995257;28;20081;-81
2022/12/19 10:02:00;;;;;;;37.28;20.60;;;;;;;;;;4983834;28;20044;-82
2022/12/19 10:04:50;;;;;;;38.35;20.20;;;6.40;99.90;;;;;;4991237;28;20559;-81
2022/12/19 10:07:35;;;;;;;34.08;18.45;;;;;;;;;;5013108;28;20035;-81
2022/12/19 10:10:24;;;;;;;36.03;17.70;;;;;;;;;;5000087;28;20083;-82
2022/12/19 10:13:36;;;;;;;42.08;20.48;;;6.60;99.90;;;;;;4991986;28;20068;-81
2022/12/19 10:16:48;;;;;;;35.38;19.20;;;6.60;99.90;;;;;;4992225;28;20037;-81
2022/12/19 10:19:54;;;;;;;32.80;18.70;;;6.70;99.90;;;;;;4991635;28;20042;-81
2022/12/19 10:22:44;;;;;;;32.58;19.25;;;;;;;;;;5014921;28;20505;-81
2022/12/19 10:25:44;;;;;;;37.42;19.85;;;;;;;;;;4977432;28;20045;-81
2022/12/19 10:28:36;;;;;;;28.88;16.35;;;;;;;;;;4991472;28;20045;-82
2022/12/19 10:31:23;;;;;;;35.10;18.58;;;;;;;;;;4990998;28;20049;-81
2022/12/19 10:34:14;;;;;;;33.60;18.88;;;;;;;;;;4987330;28;20118;-81
2022/12/19 10:37:00;;;;;;;28.00;17.25;;;;;;;;;;4991248;28;20107;-82
2022/12/19 10:39:50;;;;;;;30.85;18.52;;;;;;;;;;4990671;28;20060;-82
2022/12/19 10:42:53;;;;;;;37.55;16.95;;;;;;;;;;4990039;28;20141;-81
2022/12/19 10:45:49;;;;;;;38.78;17.77;;;;;;;;;;5039396;28;20033;-81
2022/12/19 10:48:34;;;;;;;29.73;16.70;;;;;;;;;;4993539;28;20079;-81
2022/12/19 10:51:23;;;;;;;27.38;17.30;;;7.00;99.90;;;;;;4988123;28;20041;-82
2022/12/19 10:54:08;;;;;;;26.92;16.75;;;;;;;;;;5009777;28;20044;-81
2022/12/19 10:56:54;;;;;;;27.40;16.30;;;;;;;;;;4994384;28;20074;-81
2022/12/19 10:59:39;;;;;;;28.55;16.67;;;;;;;;;;4985256;28;20094;-81
2022/12/19 11:02:32;;;;;;;28.35;16.85;;;7.10;99.90;;;;;;4995527;28;20164;-82
2022/12/19 11:05:23;;;;;;;29.23;17.27;;;;;;;;;;5010937;28;20056;-81
2022/12/19 11:08:08;;;;;;;23.83;16.05;;;;;;;;;;5003899;28;20493;-82
2022/12/19 11:10:57;;;;;;;24.90;15.52;;;;;;;;;;5010500;28;20033;-82
2022/12/19 11:13:46;;;;;;;25.25;15.48;;;;;;;;;;5011197;28;20578;-82
2022/12/19 11:16:35;;;;;;;27.17;14.30;;;;;;;;;;5010905;28;20635;-82
2022/12/19 11:19:21;;;;;;;26.02;15.45;;;;;;;;;;5010917;28;20037;-82
2022/12/19 11:22:09;;;;;;;22.48;14.85;;;;;;;;;;5001785;28;20072;-81
2022/12/19 11:24:55;;;;;;;26.75;15.70;;;;;;;;;;4995255;28;20398;-82
2022/12/19 11:27:39;;;;;;;23.35;14.68;;;;;;;;;;4992707;28;20060;-81
2022/12/19 11:30:26;;;;;;;22.27;14.20;;;;;;;;;;4986273;28;20103;-81
2022/12/19 11:33:15;;;;;;;24.75;13.88;;;;;;;;;;5010402;28;20040;-82
2022/12/19 11:36:01;;;;;;;26.17;13.43;;;;;;;;;;5009482;28;20505;-82
2022/12/19 11:38:52;;;;;;;25.02;14.25;;;;;;;;;;5025448;28;20467;-81
2022/12/19 11:42:06;;;;;;;22.33;14.20;;;7.50;99.90;;;;;;5025453;28;20064;-81
2022/12/19 11:45:06;;;;;;;21.65;13.55;;;7.60;99.90;;;;;;5003031;28;20041;-82
2022/12/19 11:48:02;;;;;;;23.33;14.32;;;;;;;;;;5000160;28;20079;-81
2022/12/19 11:51:04;;;;;;;25.08;13.98;;;;;;;;;;4992121;28;20405;-81
2022/12/19 11:53:55;;;;;;;19.67;13.68;;;;;;;;;;5010255;28;20113;-82
2022/12/19 11:56:39;;;;;;;21.92;13.90;;;;;;;;;;4999323;28;20401;-82
2022/12/19 11:59:24;;;;;;;18.90;12.38;;;;;;;;;;5010032;28;20032;-82
2022/12/19 12:02:46;;;;;;;18.33;12.05;;;7.80;99.90;;;;;;5009520;28;20057;-82
2022/12/19 12:05:37;;;;;;;19.10;12.18;;;;;;;;;;4997165;28;20080;-82
2022/12/19 12:08:28;;;;;;;18.92;12.32;;;;;;;;;;5008520;28;20045;-83
2022/12/19 12:11:22;;;;;;;16.83;11.73;;;;;;;;;;5004549;28;20049;-81
2022/12/19 12:14:18;;;;;;;21.73;12.00;;;8.00;99.90;;;;;;5002432;28;20543;-81
2022/12/19 12:17:29;;;;;;;19.80;11.68;;;8.00;99.90;;;;;;4999835;28;20091;-82
2022/12/19 12:20:20;;;;;;;20.55;11.10;;;;;;;;;;4988568;28;20038;-81
2022/12/19 12:23:28;;;;;;;18.27;11.13;;;;;;;;;;4990136;28;20539;-81
2022/12/19 12:26:39;;;;;;;19.42;11.68;;;;;;;;;;5003674;28;20041;-82
2022/12/19 12:29:24;;;;;;;14.85;10.27;;;;;;;;;;5003759;28;20493;-81
2022/12/19 12:32:16;;;;;;;14.65;10.13;;;;;;;;;;5006033;28;20033;-81
2022/12/19 12:35:17;;;;;;;20.33;11.15;;;;;;;;;;5004666;28;20406;-80
2022/12/19 12:38:01;;;;;;;20.95;11.98;;;;;;;;;;5016940;28;20060;-83
2022/12/19 12:41:07;;;;;;;16.67;10.55;;;;;;;;;;5002653;28;20118;-80
2022/12/19 12:43:57;;;;;;;14.98;10.68;;;;;;;;;;5006746;28;20033;-81
2022/12/19 12:46:45;;;;;;;17.17;10.23;;;;;;;;;;4992551;28;20066;-80
2022/12/19 12:49:44;;;;;;;14.52;10.60;;;;;;;;;;4988507;28;20071;-80
2022/12/19 12:52:32;;;;;;;21.52;12.00;;;;;;;;;;4999871;28;20425;-80
2022/12/19 12:55:42;;;;;;;17.58;11.65;;;8.10;99.90;;;;;;5008887;28;20122;-80
2022/12/19 12:58:50;;;;;;;14.82;10.07;;;7.90;99.90;;;;;;4985844;28;20126;-80
2022/12/19 13:01:36;;;;;;;17.90;10.95;;;;;;;;;;5020791;28;20069;-81
2022/12/19 13:04:26;;;;;;;15.57;10.23;;;;;;;;;;5012204;28;20109;-82
2022/12/19 13:07:18;;;;;;;14.45;10.30;;;;;;;;;;5012313;28;20036;-81
2022/12/19 13:10:12;;;;;;;17.92;11.82;;;;;;;;;;4989659;28;20099;-80
2022/12/19 13:13:13;;;;;;;17.88;11.45;;;8.10;99.90;;;;;;5011659;28;20091;-81
2022/12/19 13:15:58;;;;;;;19.08;11.60;;;8.10;99.90;;;;;;5008403;28;20531;-81
2022/12/19 13:19:03;;;;;;;17.98;12.68;;;8.00;99.90;;;;;;5012637;28;20044;-80
2022/12/19 13:22:03;;;;;;;19.33;11.95;;;;;;;;;;5005526;28;20072;-81
2022/12/19 13:24:53;;;;;;;19.90;11.68;;;7.80;99.90;;;;;;4994369;28;20053;-80
2022/12/19 13:27:39;;;;;;;17.60;11.02;;;8.00;99.90;;;;;;4991701;28;20046;-81
2022/12/19 13:30:24;;;;;;;17.63;11.70;;;;;;;;;;4986524;28;20037;-81
2022/12/19 13:33:09;;;;;;;18.38;12.63;;;;;;;;;;4993357;28;20061;-82
2022/12/19 13:35:54;;;;;;;19.08;13.63;;;;;;;;;;5002170;28;20040;-81
2022/12/19 13:38:47;;;;;;;21.75;13.35;;;8.30;99.90;;;;;;4991695;28;20056;-80
2022/12/19 13:44:43;;;;;;;22.08;14.57;;;;;;;;;;5015444;28;20038;-81
2022/12/19 13:47:38;;;;;;;23.42;15.32;;;8.20;99.90;;;;;;5000740;28;20079;-81
2022/12/19 13:50:26;;;;;;;26.35;13.88;;;;;;;;;;4988175;28;20516;-81
2022/12/19 13:53:19;;;;;;;24.58;14.45;;;8.30;99.90;;;;;;5011672;28;20497;-81
2022/12/19 13:56:03;;;;;;;21.17;14.20;;;;;;;;;;5010501;28;20032;-81
2022/12/19 13:58:48;;;;;;;24.25;14.52;;;;;;;;;;5011318;28;20067;-81
2022/12/19 14:01:35;;;;;;;19.02;13.45;;;8.20;99.90;;;;;;4990608;28;20103;-81
2022/12/19 14:04:31;;;;;;;20.75;12.60;;;8.30;99.90;;;;;;5001237;28;20398;-80
2022/12/19 14:07:35;;;;;;;21.02;13.43;;;8.30;99.90;;;;;;5010148;28;20068;-82
2022/12/19 14:10:29;;;;;;;16.50;11.13;;;8.30;99.90;;;;;;5010413;28;20468;-81
2022/12/19 14:16:39;;;;;;;19.15;12.55;;;;;;;;;;5044846;28;20099;-81
2022/12/19 14:19:29;;;;;;;17.48;10.98;;;8.30;99.90;;;;;;5052087;28;20087;-82
2022/12/19 14:22:21;;;;;;;17.83;11.52;;;8.30;99.90;;;;;;5018570;28;20049;-81
2022/12/19 14:25:10;;;;;;;21.58;12.05;;;8.30;99.90;;;;;;5005810;28;20089;-81
2022/12/19 14:28:20;;;;;;;19.08;11.75;;;8.50;99.90;;;;;;5011206;28;20041;-82
2022/12/19 14:31:10;;;;;;;17.80;10.88;;;8.30;99.90;;;;;;5024418;28;20045;-81
2022/12/19 14:33:55;;;;;;;17.35;10.18;;;8.30;99.90;;;;;;5012017;28;20077;-82
2022/12/19 14:36:48;;;;;;;14.57;9.85;;;8.20;99.90;;;;;;5002487;28;20045;-81
2022/12/19 14:39:34;;;;;;;16.58;10.35;;;8.30;99.90;;;;;;5006991;28;20040;-82
2022/12/19 14:45:34;;;;;;;13.55;9.25;;;8.30;99.90;;;;;;5049740;28;20500;-81
2022/12/19 14:48:24;;;;;;;13.43;9.13;;;;;;;;;;5006583;28;20098;-81
2022/12/19 14:51:09;;;;;;;14.52;8.45;;;;;;;;;;4987517;28;20075;-81
2022/12/19 14:54:02;;;;;;;13.55;8.73;;;;;;;;;;5009537;28;20041;-81
2022/12/19 14:56:54;;;;;;;15.02;8.63;;;8.50;99.90;;;;;;5000178;28;20087;-81
2022/12/19 14:59:44;;;;;;;12.15;8.68;;;8.40;99.90;;;;;;4982728;28;20037;-81
2022/12/19 15:02:32;;;;;;;11.98;8.60;;;8.40;99.90;;;;;;5005518;28;20049;-80
2022/12/19 15:05:18;;;;;;;13.68;8.25;;;8.40;99.90;;;;;;5010286;28;20044;-80
2022/12/19 15:08:10;;;;;;;10.90;7.78;;;8.40;99.90;;;;;;5002267;28;20065;-80
2022/12/19 15:13:18;;;;;;;11.00;7.45;;;8.40;99.90;;;;;;4985054;28;20448;-81
2022/12/19 15:14:06;;;;;;;11.95;6.88;;;;;;;;;;4989584;28;20046;-81
2022/12/19 15:17:00;;;;;;;14.13;8.00;;;;;;;;;;4990100;28;20382;-82
2022/12/19 15:19:44;;;;;;;13.38;8.25;;;;;;;;;;4988396;28;20038;-82
2022/12/19 15:22:29;;;;;;;10.18;7.68;;;;;;;;;;4988877;28;20050;-82
2022/12/19 15:25:15;;;;;;;12.98;7.40;;;8.50;99.90;;;;;;4990363;28;20056;-81
2022/12/19 15:28:00;;;;;;;11.15;7.65;;;;;;;;;;4985614;28;20038;-81
2022/12/19 15:30:47;;;;;;;11.77;7.13;;;;;;;;;;4990170;28;20033;-81
2022/12/19 15:33:32;;;;;;;14.05;7.85;;;;;;;;;;4989070;28;20037;-81
2022/12/19 15:36:17;;;;;;;9.07;6.78;;;;;;;;;;4984142;28;20526;-82
2022/12/19 15:39:02;;;;;;;12.82;7.88;;;;;;;;;;4984688;28;20122;-81
2022/12/19 15:41:48;;;;;;;12.30;7.43;;;;;;;;;;4994033;28;20072;-80
2022/12/19 15:44:35;;;;;;;13.10;8.57;;;;;;;;;;4992279;28;20042;-81
2022/12/19 15:47:23;;;;;;;13.95;7.82;;;;;;;;;;5004504;28;20041;-81
2022/12/19 15:50:19;;;;;;;13.10;8.50;;;;;;;;;;5003905;28;20037;-81
2022/12/19 15:53:12;;;;;;;15.93;8.73;;;;;;;;;;5000839;28;20057;-81
2022/12/19 15:55:59;;;;;;;10.70;8.15;;;;;;;;;;4997571;28;20440;-80
2022/12/19 15:58:43;;;;;;;18.30;9.68;;;;;;;;;;5009514;28;20485;-81
2022/12/19 16:01:31;;;;;;;15.50;9.20;;;;;;;;;;4987585;28;20099;-81